Time;durP1;ratioP1;P1;durP2;ratioP2;P2;SDS_P1;SDS_P2;PMS_P1;PMS_P2;Temp;Humidity;BMP_temperature;BMP_pressure;BME280_temperature;BME280_humidity;BME280_pressure;Samples;Min_cycle;Max_cycle;Signal;HPM_P1;HPM_P2
2021/08/20 00:00:09;;;;;;;;;2.50;2.50;;;;;;;;5071224;27;45498;-86
2021/08/20 00:02:35;;;;;;;;;4.50;3.00;;;;;;;;5077844;27;45457;-86
2021/08/20 00:05:00;;;;;;;;;2.00;2.00;;;;;;;;5059387;27;46989;-88
2021/08/20 00:07:25;;;;;;;;;2.33;2.33;;;;;;;;5085802;27;45464;-89
2021/08/20 00:09:51;;;;;;;;;1.33;1.33;;;;;;;;5071985;27;45434;-89
2021/08/20 00:12:16;;;;;;;;;2.25;2.00;;;;;;;;5079709;27;45350;-88
2021/08/20 00:14:41;;;;;;;;;3.00;3.00;;;;;;;;5061016;27;46245;-89
2021/08/20 00:17:07;;;;;;;;;3.00;3.00;;;;;;;;5075703;27;45804;-89
2021/08/20 00:19:34;;;;;;;;;3.00;3.00;;;;;;;;5048796;28;45445;-89
2021/08/20 00:21:59;;;;;;;;;3.50;3.25;;;;;;;;5048255;28;45409;-89
2021/08/20 00:24:24;;;;;;;;;1.67;1.67;;;;;;;;5057464;28;48018;-90
2021/08/20 00:26:49;;;;;;;;;2.00;2.00;;;;;;;;5053827;27;45458;-87
2021/08/20 00:29:15;;;;;;;;;3.00;3.00;;;;;;;;5072174;27;45539;-89
2021/08/20 00:31:40;;;;;;;;;4.33;3.33;;;;;;;;5067374;28;45311;-85
2021/08/20 00:34:05;;;;;;;;;4.00;3.00;;;;;;;;5064927;28;46396;-88
2021/08/20 00:36:30;;;;;;;;;3.00;3.00;;;;;;;;5069561;27;45394;-87
2021/08/20 00:38:56;;;;;;;;;5.00;3.00;;;;;;;;5066930;28;45506;-87
2021/08/20 00:41:21;;;;;;;;;2.00;2.00;;;;;;;;5065128;28;45424;-89
2021/08/20 00:43:46;;;;;;;;;7.00;2.33;;;;;;;;5066959;28;45494;-85
2021/08/20 00:46:12;;;;;;;;;3.50;2.50;;;;;;;;5069574;28;45843;-89
2021/08/20 00:48:38;;;;;;;;;2.00;2.00;;;;;;;;5053632;27;45509;-90
2021/08/20 00:51:15;;;;;;;;;3.00;3.00;;;;;;;;5073791;27;45445;-89
2021/08/20 00:53:41;;;;;;;;;4.00;4.00;;;;;;;;5074347;27;45537;-88
2021/08/20 00:56:07;;;;;;;;;4.25;3.00;;;;;;;;5067321;27;45454;-87
2021/08/20 00:58:36;;;;;;;;;2.75;2.75;;;;;;;;5068804;28;45576;-88
2021/08/20 01:01:04;;;;;;;;;2.00;2.00;;;;;;;;5065607;28;45445;-86
2021/08/20 01:03:30;;;;;;;;;2.00;2.00;;;;;;;;5072765;27;46268;-87
2021/08/20 01:05:56;;;;;;;;;4.00;3.00;;;;;;;;5062546;28;45328;-90
2021/08/20 01:08:22;;;;;;;;;3.50;3.00;;;;;;;;5062594;28;45359;-91
2021/08/20 01:10:48;;;;;;;;;3.00;3.00;;;;;;;;5067733;28;45446;-90
2021/08/20 01:13:14;;;;;;;;;3.50;3.50;;;;;;;;5068440;28;45542;-90
2021/08/20 01:15:39;;;;;;;;;3.00;2.00;;;;;;;;5049802;27;45509;-88
2021/08/20 01:18:04;;;;;;;;;2.33;2.33;;;;;;;;5079653;27;45442;-90
2021/08/20 01:20:29;;;;;;;;;2.67;2.67;;;;;;;;5068328;27;45430;-89
2021/08/20 01:22:54;;;;;;;;;4.00;3.00;;;;;;;;5069835;27;45542;-89
2021/08/20 01:25:20;;;;;;;;;2.00;2.00;;;;;;;;5052947;28;45467;-90
2021/08/20 01:27:45;;;;;;;;;3.00;2.00;;;;;;;;5074244;27;45532;-89
2021/08/20 01:30:11;;;;;;;;;4.75;2.75;;;;;;;;5053301;28;45403;-89
2021/08/20 01:32:36;;;;;;;;;4.00;2.25;;;;;;;;5072931;28;45626;-90
2021/08/20 01:35:02;;;;;;;;;3.00;3.00;;;;;;;;5041680;27;46102;-90
2021/08/20 01:37:27;;;;;;;;;4.50;2.00;;;;;;;;5064153;28;45458;-86
2021/08/20 01:39:52;;;;;;;;;3.00;2.67;;;;;;;;5072610;27;45264;-87
2021/08/20 01:42:19;;;;;;;;;4.00;3.00;;;;;;;;5070277;28;46116;-90
2021/08/20 01:44:44;;;;;;;;;5.25;2.50;;;;;;;;5071274;27;45485;-91
2021/08/20 01:47:10;;;;;;;;;3.67;2.33;;;;;;;;5070310;27;45434;-87
2021/08/20 01:49:35;;;;;;;;;2.00;2.00;;;;;;;;5058451;28;45551;-91
2021/08/20 01:52:00;;;;;;;;;2.33;2.33;;;;;;;;5057192;28;47095;-87
2021/08/20 01:54:25;;;;;;;;;3.00;2.00;;;;;;;;5072674;27;45373;-88
2021/08/20 01:56:51;;;;;;;;;4.00;3.00;;;;;;;;5071970;27;45419;-88
2021/08/20 01:59:16;;;;;;;;;3.00;2.00;;;;;;;;5068705;28;45289;-90
2021/08/20 02:01:41;;;;;;;;;3.50;2.25;;;;;;;;5075445;27;45474;-90
2021/08/20 02:04:06;;;;;;;;;3.33;2.33;;;;;;;;5072568;28;45392;-89
2021/08/20 02:06:33;;;;;;;;;3.00;3.00;;;;;;;;5049277;28;45426;-90
2021/08/20 02:08:58;;;;;;;;;3.00;3.00;;;;;;;;5065609;28;45561;-86
2021/08/20 02:11:24;;;;;;;;;4.50;3.75;;;;;;;;5066963;28;46244;-89
2021/08/20 02:13:49;;;;;;;;;2.00;2.00;;;;;;;;5072987;27;45492;-89
2021/08/20 02:16:14;;;;;;;;;3.00;3.00;;;;;;;;5056679;28;45482;-90
2021/08/20 02:18:40;;;;;;;;;5.00;3.75;;;;;;;;5069651;28;45372;-89
2021/08/20 02:21:05;;;;;;;;;3.75;2.25;;;;;;;;5070068;28;45470;-90
2021/08/20 02:23:32;;;;;;;;;2.67;2.67;;;;;;;;5069753;27;45491;-89
2021/08/20 02:25:57;;;;;;;;;2.00;2.00;;;;;;;;5070105;28;45854;-91
2021/08/20 02:28:22;;;;;;;;;3.33;3.00;;;;;;;;5071704;28;45462;-91
2021/08/20 02:30:49;;;;;;;;;1.33;1.33;;;;;;;;5067893;28;45641;-90
2021/08/20 02:33:15;;;;;;;;;4.00;3.25;;;;;;;;5070009;28;45438;-90
2021/08/20 02:35:40;;;;;;;;;1.33;1.33;;;;;;;;5072665;27;45512;-90
2021/08/20 02:38:05;;;;;;;;;3.00;3.00;;;;;;;;5070274;28;45363;-90
2021/08/20 02:40:30;;;;;;;;;3.00;2.00;;;;;;;;5071890;28;47693;-89
2021/08/20 02:42:56;;;;;;;;;1.00;1.00;;;;;;;;5067088;28;45459;-91
2021/08/20 02:45:21;;;;;;;;;2.25;2.25;;;;;;;;5076274;27;45471;-90
2021/08/20 02:47:47;;;;;;;;;1.75;1.75;;;;;;;;5064821;28;45645;-86
2021/08/20 02:50:13;;;;;;;;;2.50;2.50;;;;;;;;5054406;28;47178;-89
2021/08/20 02:52:38;;;;;;;;;3.25;3.25;;;;;;;;5070997;28;45336;-90
2021/08/20 02:55:04;;;;;;;;;2.25;2.25;;;;;;;;5054520;28;45391;-90
2021/08/20 02:57:29;;;;;;;;;3.25;2.00;;;;;;;;5068145;28;45414;-89
2021/08/20 02:59:55;;;;;;;;;4.50;2.00;;;;;;;;5073063;27;45824;-89
2021/08/20 03:02:20;;;;;;;;;3.25;3.25;;;;;;;;5070744;28;45470;-90
2021/08/20 03:04:45;;;;;;;;;2.00;2.00;;;;;;;;5051924;28;45606;-89
2021/08/20 03:07:11;;;;;;;;;3.25;3.00;;;;;;;;5053963;28;45569;-90
2021/08/20 03:09:36;;;;;;;;;2.00;2.00;;;;;;;;5055826;28;46280;-90
2021/08/20 03:12:01;;;;;;;;;1.33;1.33;;;;;;;;5049893;28;45486;-86
2021/08/20 03:14:27;;;;;;;;;3.00;3.00;;;;;;;;5068864;28;45438;-86
2021/08/20 03:16:52;;;;;;;;;2.00;2.00;;;;;;;;5060977;28;45416;-90
2021/08/20 03:19:17;;;;;;;;;4.67;3.00;;;;;;;;5069595;28;46236;-90
2021/08/20 03:21:42;;;;;;;;;3.67;2.00;;;;;;;;5050327;28;45442;-86
2021/08/20 03:24:08;;;;;;;;;4.67;2.33;;;;;;;;5045060;27;45260;-91
2021/08/20 03:26:33;;;;;;;;;4.00;2.00;;;;;;;;5071773;27;45282;-90
2021/08/20 03:28:58;;;;;;;;;3.50;3.50;;;;;;;;5050040;28;47399;-90
2021/08/20 03:31:24;;;;;;;;;3.25;3.00;;;;;;;;5052526;28;45413;-90
2021/08/20 03:33:49;;;;;;;;;4.00;2.00;;;;;;;;5072062;27;45572;-89
2021/08/20 03:36:14;;;;;;;;;3.00;2.00;;;;;;;;5050806;28;45299;-90
2021/08/20 03:38:40;;;;;;;;;3.25;3.00;;;;;;;;5070833;28;45286;-88
2021/08/20 03:41:05;;;;;;;;;3.50;3.00;;;;;;;;5063751;28;45641;-87
2021/08/20 03:43:30;;;;;;;;;2.33;2.33;;;;;;;;5087377;28;45432;-87
2021/08/20 03:45:55;;;;;;;;;5.00;2.00;;;;;;;;5052809;28;45374;-89
2021/08/20 03:48:20;;;;;;;;;4.00;2.00;;;;;;;;5051678;28;47274;-86
2021/08/20 03:50:46;;;;;;;;;2.67;2.33;;;;;;;;5065751;28;45462;-90
2021/08/20 03:53:11;;;;;;;;;3.00;3.00;;;;;;;;5066608;27;45372;-90
2021/08/20 03:55:36;;;;;;;;;2.00;2.00;;;;;;;;5072884;27;45441;-89
2021/08/20 03:58:01;;;;;;;;;2.67;2.67;;;;;;;;5068054;28;45469;-87
2021/08/20 04:00:26;;;;;;;;;2.33;2.33;;;;;;;;5065990;28;45555;-90
2021/08/20 04:02:52;;;;;;;;;4.00;2.67;;;;;;;;5046708;28;45451;-91
2021/08/20 04:05:17;;;;;;;;;2.33;2.33;;;;;;;;5068389;27;45466;-90
2021/08/20 04:07:42;;;;;;;;;2.33;2.33;;;;;;;;5069310;28;45990;-90
2021/08/20 04:10:08;;;;;;;;;4.00;1.75;;;;;;;;5064173;28;45504;-87
2021/08/20 04:12:33;;;;;;;;;2.50;2.25;;;;;;;;5050287;28;45424;-89
2021/08/20 04:14:58;;;;;;;;;4.33;2.67;;;;;;;;5067247;28;45433;-89
2021/08/20 04:17:23;;;;;;;;;2.00;2.00;;;;;;;;5050180;28;46031;-88
2021/08/20 04:19:48;;;;;;;;;2.00;2.00;;;;;;;;5068562;27;45462;-90
2021/08/20 04:22:14;;;;;;;;;1.33;1.33;;;;;;;;5050635;28;48443;-90
2021/08/20 04:24:41;;;;;;;;;2.33;2.33;;;;;;;;5066775;28;45450;-91
2021/08/20 04:27:07;;;;;;;;;3.00;3.00;;;;;;;;5064204;28;45542;-87
2021/08/20 04:29:32;;;;;;;;;3.50;3.00;;;;;;;;5066386;28;45383;-90
2021/08/20 04:31:57;;;;;;;;;2.00;2.00;;;;;;;;5067014;27;45506;-90
2021/08/20 04:34:23;;;;;;;;;4.00;2.67;;;;;;;;5067721;27;45543;-86
2021/08/20 04:36:49;;;;;;;;;3.25;3.00;;;;;;;;5073435;27;46899;-90
2021/08/20 04:39:14;;;;;;;;;3.00;3.00;;;;;;;;5054386;28;45423;-90
2021/08/20 04:41:39;;;;;;;;;3.33;2.00;;;;;;;;5066887;27;45245;-90
2021/08/20 04:44:04;;;;;;;;;2.75;2.75;;;;;;;;5065668;28;45364;-86
2021/08/20 04:46:29;;;;;;;;;4.00;4.00;;;;;;;;5070094;28;45485;-90
2021/08/20 04:48:55;;;;;;;;;3.33;3.33;;;;;;;;5068118;28;45295;-90
2021/08/20 04:51:20;;;;;;;;;2.00;2.00;;;;;;;;5075302;28;45641;-89
2021/08/20 04:53:45;;;;;;;;;3.33;2.00;;;;;;;;5071364;28;45570;-90
2021/08/20 04:56:10;;;;;;;;;4.00;2.75;;;;;;;;5058850;28;46866;-88
2021/08/20 04:58:36;;;;;;;;;3.33;2.00;;;;;;;;5057450;28;45518;-90
2021/08/20 05:01:02;;;;;;;;;3.33;3.33;;;;;;;;5068680;27;45526;-91
2021/08/20 05:03:27;;;;;;;;;6.50;3.50;;;;;;;;5077085;27;45735;-87
2021/08/20 05:05:52;;;;;;;;;2.00;2.00;;;;;;;;5052288;28;46343;-91
2021/08/20 05:08:17;;;;;;;;;4.00;2.33;;;;;;;;5068925;28;45554;-89
2021/08/20 05:10:43;;;;;;;;;3.00;1.67;;;;;;;;5049312;28;45631;-90
2021/08/20 05:13:08;;;;;;;;;3.50;3.00;;;;;;;;5064005;28;45445;-90
2021/08/20 05:15:33;;;;;;;;;2.50;2.50;;;;;;;;5067690;28;45602;-88
2021/08/20 05:17:59;;;;;;;;;2.00;2.00;;;;;;;;5067379;28;45474;-91
2021/08/20 05:20:24;;;;;;;;;3.00;3.00;;;;;;;;5074328;28;45420;-87
2021/08/20 05:22:53;;;;;;;;;4.00;4.00;;;;;;;;5055772;28;45537;-89
2021/08/20 05:25:22;;;;;;;;;3.50;3.50;;;;;;;;5075025;28;46200;-88
2021/08/20 05:27:48;;;;;;;;;4.75;3.25;;;;;;;;5059067;28;45752;-90
2021/08/20 05:30:14;;;;;;;;;3.00;3.00;;;;;;;;5071821;28;45740;-87
2021/08/20 05:32:40;;;;;;;;;4.75;3.00;;;;;;;;5052201;28;46108;-85
2021/08/20 05:35:06;;;;;;;;;4.00;3.00;;;;;;;;5062541;28;46728;-88
2021/08/20 05:37:31;;;;;;;;;4.75;3.00;;;;;;;;5064776;27;45418;-90
2021/08/20 05:39:56;;;;;;;;;5.67;3.00;;;;;;;;5068488;28;45320;-89
2021/08/20 05:42:22;;;;;;;;;3.00;3.00;;;;;;;;5071583;27;45268;-91
2021/08/20 05:44:47;;;;;;;;;3.00;2.00;;;;;;;;5074036;28;45732;-90
2021/08/20 05:47:12;;;;;;;;;2.00;1.00;;;;;;;;5073931;27;45395;-90
2021/08/20 05:49:37;;;;;;;;;5.00;3.00;;;;;;;;5058117;28;45456;-88
2021/08/20 05:52:03;;;;;;;;;2.00;2.00;;;;;;;;5071724;27;45511;-90
2021/08/20 05:54:28;;;;;;;;;3.25;2.00;;;;;;;;5078129;28;46398;-90
2021/08/20 05:56:53;;;;;;;;;4.67;3.00;;;;;;;;5078151;28;45411;-89
2021/08/20 05:59:18;;;;;;;;;3.67;3.33;;;;;;;;5045853;28;45596;-89
2021/08/20 06:01:44;;;;;;;;;2.33;2.33;;;;;;;;5065307;27;45436;-89
2021/08/20 06:04:09;;;;;;;;;4.00;3.00;;;;;;;;5056509;28;48261;-89
2021/08/20 06:06:38;;;;;;;;;3.67;2.00;;;;;;;;5070733;27;46045;-90
2021/08/20 06:09:03;;;;;;;;;3.75;2.25;;;;;;;;5074251;27;45547;-89
2021/08/20 06:11:29;;;;;;;;;2.33;2.33;;;;;;;;5063287;28;45328;-89
2021/08/20 06:13:54;;;;;;;;;3.33;3.00;;;;;;;;5069263;27;46133;-89
2021/08/20 06:16:20;;;;;;;;;3.25;3.00;;;;;;;;5067155;28;45307;-89
2021/08/20 06:18:45;;;;;;;;;3.75;3.25;;;;;;;;5072781;27;45511;-89
2021/08/20 06:21:11;;;;;;;;;2.00;2.00;;;;;;;;5071321;27;45387;-89
2021/08/20 06:23:36;;;;;;;;;2.00;2.00;;;;;;;;5068602;27;45616;-89
2021/08/20 06:26:01;;;;;;;;;5.33;2.00;;;;;;;;5066129;28;45411;-89
2021/08/20 06:28:26;;;;;;;;;3.67;2.33;;;;;;;;5054136;28;45248;-89
2021/08/20 06:30:51;;;;;;;;;5.33;3.00;;;;;;;;5073526;27;45296;-88
2021/08/20 06:33:17;;;;;;;;;3.00;3.00;;;;;;;;5066503;27;48358;-88
2021/08/20 06:35:43;;;;;;;;;4.00;4.00;;;;;;;;5053072;28;46134;-89
2021/08/20 06:38:08;;;;;;;;;3.50;3.00;;;;;;;;5047132;28;45716;-89
2021/08/20 06:40:33;;;;;;;;;5.25;3.25;;;;;;;;5069451;28;45412;-89
2021/08/20 06:42:58;;;;;;;;;3.00;3.00;;;;;;;;5071842;27;46405;-89
2021/08/20 06:45:24;;;;;;;;;4.50;3.00;;;;;;;;5066535;28;45281;-89
2021/08/20 06:47:49;;;;;;;;;3.33;3.33;;;;;;;;5064372;28;45268;-89
2021/08/20 06:50:14;;;;;;;;;3.00;2.00;;;;;;;;5064343;28;45221;-90
2021/08/20 06:52:40;;;;;;;;;5.00;3.50;;;;;;;;5053637;28;46050;-89
2021/08/20 06:55:06;;;;;;;;;6.00;3.50;;;;;;;;5054374;28;45931;-89
2021/08/20 06:57:31;;;;;;;;;3.25;3.25;;;;;;;;5047941;28;45434;-86
2021/08/20 06:59:57;;;;;;;;;5.67;3.67;;;;;;;;5049294;28;45610;-89
2021/08/20 07:02:22;;;;;;;;;4.75;4.75;;;;;;;;5050679;28;47255;-89
2021/08/20 07:04:49;;;;;;;;;6.67;3.67;;;;;;;;5053060;28;45396;-87
2021/08/20 07:07:15;;;;;;;;;3.75;3.00;;;;;;;;5069831;27;45789;-88
2021/08/20 07:09:40;;;;;;;;;4.33;3.33;;;;;;;;5069332;28;45423;-88
2021/08/20 07:12:05;;;;;;;;;3.67;3.67;;;;;;;;5063505;28;47328;-89
2021/08/20 07:14:30;;;;;;;;;4.25;4.25;;;;;;;;5049393;27;46697;-89
2021/08/20 07:16:55;;;;;;;;;5.67;3.67;;;;;;;;5069503;28;45438;-89
2021/08/20 07:19:21;;;;;;;;;3.67;3.00;;;;;;;;5070012;28;45538;-89
2021/08/20 07:21:46;;;;;;;;;3.33;3.33;;;;;;;;5071193;28;45453;-87
2021/08/20 07:24:11;;;;;;;;;4.00;4.00;;;;;;;;5054712;28;45540;-88
2021/08/20 07:26:36;;;;;;;;;4.00;3.00;;;;;;;;5069105;28;45444;-90
2021/08/20 07:29:02;;;;;;;;;2.33;2.33;;;;;;;;5071378;27;45485;-87
2021/08/20 07:31:27;;;;;;;;;3.50;3.00;;;;;;;;5094314;27;45123;-86
2021/08/20 07:33:52;;;;;;;;;5.00;4.00;;;;;;;;5100290;27;44768;-75
2021/08/20 07:36:18;;;;;;;;;4.00;2.75;;;;;;;;5093845;28;44705;-80
2021/08/20 07:38:43;;;;;;;;;4.50;4.50;;;;;;;;5090670;27;45089;-92
2021/08/20 07:41:08;;;;;;;;;3.00;2.00;;;;;;;;5092831;27;45034;-85
2021/08/20 07:43:33;;;;;;;;;5.00;5.00;;;;;;;;5075913;27;45477;-84
2021/08/20 07:45:59;;;;;;;;;3.00;3.00;;;;;;;;5086633;28;45015;-82
2021/08/20 07:48:25;;;;;;;;;3.75;2.75;;;;;;;;5097185;28;45166;-78
2021/08/20 07:50:50;;;;;;;;;3.25;2.50;;;;;;;;5096663;28;45369;-83
2021/08/20 07:53:16;;;;;;;;;4.00;4.00;;;;;;;;5101806;27;44859;-91
2021/08/20 07:55:42;;;;;;;;;3.25;3.25;;;;;;;;5093513;28;44867;-85
2021/08/20 07:58:07;;;;;;;;;1.75;1.75;;;;;;;;5100147;27;45071;-76
2021/08/20 08:00:32;;;;;;;;;4.00;4.00;;;;;;;;5063119;28;46224;-94
2021/08/20 08:02:58;;;;;;;;;3.25;2.75;;;;;;;;5081120;27;45628;-94
2021/08/20 08:05:24;;;;;;;;;2.00;2.00;;;;;;;;5065477;28;45289;-92
2021/08/20 08:07:49;;;;;;;;;3.00;3.00;;;;;;;;5055479;28;45685;-95
2021/08/20 08:10:15;;;;;;;;;3.00;3.00;;;;;;;;5072069;28;46745;-95
2021/08/20 08:12:40;;;;;;;;;4.00;3.25;;;;;;;;5079743;28;45343;-87
2021/08/20 08:15:07;;;;;;;;;2.75;2.00;;;;;;;;5077429;28;45449;-86
2021/08/20 08:17:32;;;;;;;;;5.00;2.00;;;;;;;;5059329;28;45611;-86
2021/08/20 08:19:58;;;;;;;;;2.00;2.00;;;;;;;;5067873;28;46228;-88
2021/08/20 08:22:23;;;;;;;;;4.33;3.00;;;;;;;;5068435;27;45470;-89
2021/08/20 08:24:48;;;;;;;;;2.67;2.00;;;;;;;;5060868;27;45288;-87
2021/08/20 08:27:13;;;;;;;;;2.00;2.00;;;;;;;;5078196;27;45703;-86
2021/08/20 08:29:39;;;;;;;;;4.33;3.00;;;;;;;;5078244;27;46542;-86
2021/08/20 08:32:04;;;;;;;;;4.25;4.25;;;;;;;;5072787;27;45549;-88
2021/08/20 08:34:29;;;;;;;;;4.50;4.00;;;;;;;;5077238;27;45390;-85
2021/08/20 08:36:54;;;;;;;;;2.75;2.75;;;;;;;;5077538;27;45307;-86
2021/08/20 08:39:20;;;;;;;;;4.00;3.00;;;;;;;;5077969;27;45446;-88
2021/08/20 08:41:45;;;;;;;;;4.00;3.00;;;;;;;;5068227;27;45413;-85
2021/08/20 08:44:10;;;;;;;;;3.33;2.33;;;;;;;;5073282;27;45483;-89
2021/08/20 08:46:38;;;;;;;;;4.75;3.50;;;;;;;;5057213;28;45571;-87
2021/08/20 08:49:04;;;;;;;;;5.25;3.50;;;;;;;;5054290;28;47551;-88
2021/08/20 08:51:30;;;;;;;;;2.25;2.25;;;;;;;;5073764;27;45491;-87
2021/08/20 08:53:55;;;;;;;;;2.00;2.00;;;;;;;;5052441;27;45894;-88
2021/08/20 08:56:20;;;;;;;;;3.00;3.00;;;;;;;;5066704;27;45533;-89
2021/08/20 08:58:46;;;;;;;;;4.25;3.00;;;;;;;;5070472;27;46420;-89
2021/08/20 09:01:30;;;;;;;;;5.00;3.50;;;;;;;;5070297;27;45447;-89
2021/08/20 09:04:06;;;;;;;;;2.50;2.50;;;;;;;;5073472;27;45495;-88
2021/08/20 09:06:36;;;;;;;;;3.75;2.25;;;;;;;;5073568;27;45485;-87
2021/08/20 09:09:08;;;;;;;;;2.75;2.75;;;;;;;;5050301;27;45881;-89
2021/08/20 09:11:34;;;;;;;;;2.00;2.00;;;;;;;;5076881;27;47051;-90
2021/08/20 09:13:59;;;;;;;;;4.00;2.00;;;;;;;;5055086;27;45366;-90
2021/08/20 09:16:33;;;;;;;;;2.00;2.00;;;;;;;;5052005;28;45346;-91
2021/08/20 09:19:13;;;;;;;;;2.00;2.00;;;;;;;;5068957;27;45485;-89
2021/08/20 09:21:39;;;;;;;;;3.25;2.25;;;;;;;;5071977;27;45508;-88
2021/08/20 09:24:09;;;;;;;;;1.50;1.50;;;;;;;;5062901;28;46055;-90
2021/08/20 09:26:34;;;;;;;;;2.50;2.50;;;;;;;;5068483;27;45507;-90
2021/08/20 09:29:12;;;;;;;;;1.00;1.00;;;;;;;;5061516;27;46140;-88
2021/08/20 09:31:57;;;;;;;;;2.00;2.00;;;;;;;;5064745;27;50021;-88
2021/08/20 09:34:22;;;;;;;;;1.75;1.75;;;;;;;;5049202;28;45758;-88
2021/08/20 09:36:48;;;;;;;;;3.00;1.33;;;;;;;;5070705;27;45741;-88
2021/08/20 09:39:23;;;;;;;;;1.50;1.50;;;;;;;;5076445;27;45536;-88
2021/08/20 09:41:49;;;;;;;;;2.50;2.00;;;;;;;;5065724;27;46212;-84
2021/08/20 09:44:18;;;;;;;;;1.00;1.00;;;;;;;;5063245;27;48678;-89
2021/08/20 09:46:44;;;;;;;;;1.00;1.00;;;;;;;;5067852;27;45843;-89
2021/08/20 09:49:10;;;;;;;;;3.25;3.00;;;;;;;;5062261;27;46052;-85
2021/08/20 09:51:49;;;;;;;;;1.25;1.25;;;;;;;;5070630;27;45530;-88
2021/08/20 09:54:18;;;;;;;;;1.75;1.75;;;;;;;;5066950;28;45451;-87
2021/08/20 09:56:44;;;;;;;;;4.00;2.75;;;;;;;;5065846;27;45559;-87
2021/08/20 09:59:10;;;;;;;;;2.25;2.25;;;;;;;;5062038;27;46035;-90
2021/08/20 10:01:37;;;;;;;;;3.00;1.00;;;;;;;;5069651;27;45412;-89
2021/08/20 10:04:04;;;;;;;;;2.00;2.00;;;;;;;;5043505;27;45609;-89
2021/08/20 10:06:31;;;;;;;;;4.00;2.00;;;;;;;;5060876;27;45443;-88
2021/08/20 10:08:58;;;;;;;;;1.75;1.75;;;;;;;;5071768;27;45471;-89
2021/08/20 10:11:25;;;;;;;;;1.25;1.25;;;;;;;;5079295;27;45533;-89
2021/08/20 10:13:51;;;;;;;;;1.00;1.00;;;;;;;;5069410;27;49731;-92
2021/08/20 10:16:17;;;;;;;;;1.00;1.00;;;;;;;;5071228;28;45537;-89
2021/08/20 10:18:42;;;;;;;;;1.33;1.00;;;;;;;;5069473;27;45472;-89
2021/08/20 10:21:08;;;;;;;;;1.00;1.00;;;;;;;;5054489;28;45701;-87
2021/08/20 10:23:33;;;;;;;;;3.50;2.00;;;;;;;;5057085;28;45766;-86
2021/08/20 10:25:59;;;;;;;;;3.00;2.00;;;;;;;;5067170;28;45903;-90
2021/08/20 10:28:24;;;;;;;;;2.00;2.00;;;;;;;;5066830;28;45991;-88
2021/08/20 10:30:50;;;;;;;;;2.75;1.75;;;;;;;;5071641;27;45807;-86
2021/08/20 10:33:28;;;;;;;;;1.00;1.00;;;;;;;;5067371;28;45419;-88
2021/08/20 10:35:56;;;;;;;;;1.00;1.00;;;;;;;;5069424;28;45308;-88
2021/08/20 10:38:36;;;;;;;;;2.00;1.25;;;;;;;;5053826;28;47482;-88
2021/08/20 10:41:08;;;;;;;;;2.75;1.25;;;;;;;;5063272;27;45750;-87
2021/08/20 10:43:52;;;;;;;;;2.25;1.25;;;;;;;;5061828;27;45399;-88
2021/08/20 10:46:36;;;;;;;;;1.00;1.00;;;;;;;;5068959;27;45380;-89
2021/08/20 10:51:47;;;;;;;;;1.00;1.00;;;;;;;;5068892;27;45995;-84
2021/08/20 10:54:13;;;;;;;;;3.00;1.00;;;;;;;;5051149;28;45373;-88
2021/08/20 10:56:38;;;;;;;;;1.33;1.00;;;;;;;;5059645;27;45407;-89
2021/08/20 10:59:03;;;;;;;;;1.00;1.00;;;;;;;;5047782;28;47278;-87
2021/08/20 11:01:28;;;;;;;;;0.00;0.00;;;;;;;;5069250;28;45495;-88
2021/08/20 11:03:54;;;;;;;;;1.00;1.00;;;;;;;;5067508;27;45419;-88
2021/08/20 11:06:38;;;;;;;;;1.75;1.00;;;;;;;;5071691;27;45514;-87
2021/08/20 11:09:24;;;;;;;;;1.00;1.00;;;;;;;;5067403;28;47394;-87
2021/08/20 11:11:52;;;;;;;;;0.00;0.00;;;;;;;;5061896;27;45463;-87
2021/08/20 11:14:30;;;;;;;;;1.00;1.00;;;;;;;;5063374;27;45564;-88
2021/08/20 11:16:55;;;;;;;;;1.00;1.00;;;;;;;;5055202;28;49088;-88
2021/08/20 11:19:39;;;;;;;;;1.00;1.00;;;;;;;;5076152;27;46082;-87
2021/08/20 11:22:21;;;;;;;;;1.00;1.00;;;;;;;;5059968;27;45453;-86
2021/08/20 11:25:05;;;;;;;;;3.75;1.00;;;;;;;;5044973;27;45772;-84
2021/08/20 11:27:31;;;;;;;;;1.75;1.75;;;;;;;;5067606;28;45291;-87
2021/08/20 11:29:56;;;;;;;;;1.00;1.00;;;;;;;;5062518;28;45756;-87
2021/08/20 11:32:21;;;;;;;;;1.33;1.33;;;;;;;;5060551;28;45542;-85
2021/08/20 11:34:51;;;;;;;;;1.00;1.00;;;;;;;;5057302;27;45549;-86
2021/08/20 11:37:16;;;;;;;;;1.00;1.00;;;;;;;;5068647;27;45822;-86
2021/08/20 11:39:41;;;;;;;;;0.50;0.50;;;;;;;;5066830;28;45351;-86
2021/08/20 11:42:10;;;;;;;;;1.00;1.00;;;;;;;;5049672;28;45517;-85
2021/08/20 11:44:37;;;;;;;;;2.00;1.00;;;;;;;;5070348;27;45574;-85
2021/08/20 11:47:03;;;;;;;;;3.00;1.00;;;;;;;;5066469;27;45357;-87
2021/08/20 11:49:28;;;;;;;;;0.50;0.50;;;;;;;;5064595;27;45463;-86
2021/08/20 11:52:04;;;;;;;;;1.25;1.25;;;;;;;;5058543;27;45459;-83
2021/08/20 11:54:34;;;;;;;;;1.50;1.00;;;;;;;;5058373;27;45887;-88
2021/08/20 11:56:59;;;;;;;;;2.50;2.00;;;;;;;;5067410;27;45927;-88
2021/08/20 11:59:24;;;;;;;;;1.00;1.00;;;;;;;;5044524;28;46725;-89
2021/08/20 12:01:53;;;;;;;;;1.00;1.00;;;;;;;;5066619;27;45673;-81
2021/08/20 12:04:21;;;;;;;;;1.00;1.00;;;;;;;;5067553;27;45439;-81
2021/08/20 12:06:46;;;;;;;;;1.75;1.00;;;;;;;;5069640;27;46700;-77
2021/08/20 12:09:12;;;;;;;;;1.50;1.00;;;;;;;;5069041;28;45513;-81
2021/08/20 12:11:40;;;;;;;;;0.50;0.50;;;;;;;;5065957;28;45375;-80
2021/08/20 12:14:05;;;;;;;;;0.50;0.50;;;;;;;;5064182;28;45545;-79
2021/08/20 12:16:32;;;;;;;;;2.00;1.00;;;;;;;;5052356;28;46388;-79
2021/08/20 12:18:58;;;;;;;;;2.00;0.25;;;;;;;;5067494;27;46176;-78
2021/08/20 12:21:24;;;;;;;;;2.00;1.00;;;;;;;;5045686;28;45592;-83
2021/08/20 12:23:59;;;;;;;;;2.00;1.00;;;;;;;;5064511;28;45316;-80
2021/08/20 12:26:24;;;;;;;;;0.00;0.00;;;;;;;;5065556;27;45637;-79
2021/08/20 12:28:50;;;;;;;;;2.00;1.00;;;;;;;;5066365;27;46252;-79
2021/08/20 12:31:19;;;;;;;;;1.25;1.25;;;;;;;;5067756;27;45838;-81
2021/08/20 12:34:01;;;;;;;;;1.25;1.25;;;;;;;;5069957;27;45434;-79
2021/08/20 12:36:26;;;;;;;;;1.00;1.00;;;;;;;;5068755;27;45817;-78
2021/08/20 12:39:10;;;;;;;;;0.00;0.00;;;;;;;;5064311;28;45860;-79
2021/08/20 12:41:37;;;;;;;;;1.00;1.00;;;;;;;;5056743;27;45691;-80
2021/08/20 12:44:02;;;;;;;;;1.00;1.00;;;;;;;;5050617;28;45556;-82
2021/08/20 12:46:43;;;;;;;;;0.67;0.67;;;;;;;;5064695;27;45402;-81
2021/08/20 12:49:10;;;;;;;;;0.50;0.50;;;;;;;;5054476;27;45343;-78
2021/08/20 12:51:36;;;;;;;;;2.00;1.00;;;;;;;;5066224;27;45360;-79
2021/08/20 12:54:06;;;;;;;;;0.75;0.75;;;;;;;;5065698;27;45471;-78
2021/08/20 12:56:38;;;;;;;;;0.25;0.25;;;;;;;;5061552;28;45528;-75
2021/08/20 12:59:05;;;;;;;;;2.75;0.75;;;;;;;;5047191;28;48221;-78
2021/08/20 13:01:31;;;;;;;;;0.00;0.00;;;;;;;;5065407;28;45675;-80
2021/08/20 13:03:56;;;;;;;;;0.00;0.00;;;;;;;;5070243;27;45571;-79
2021/08/20 13:06:22;;;;;;;;;0.00;0.00;;;;;;;;5055021;28;45592;-80
2021/08/20 13:08:47;;;;;;;;;0.50;0.50;;;;;;;;5062720;27;45365;-80
2021/08/20 13:11:12;;;;;;;;;0.00;0.00;;;;;;;;5048046;28;45737;-78
2021/08/20 13:13:37;;;;;;;;;0.00;0.00;;;;;;;;5069197;27;49773;-79
2021/08/20 13:16:03;;;;;;;;;0.67;0.67;;;;;;;;5055826;28;45446;-79
2021/08/20 13:18:28;;;;;;;;;2.00;1.00;;;;;;;;5052755;27;48613;-80
2021/08/20 13:20:54;;;;;;;;;2.25;0.50;;;;;;;;5070177;28;45735;-80
2021/08/20 13:23:20;;;;;;;;;1.00;0.00;;;;;;;;5069172;28;46717;-80
2021/08/20 13:25:46;;;;;;;;;0.75;0.75;;;;;;;;5068623;28;45688;-79
2021/08/20 13:28:11;;;;;;;;;0.00;0.00;;;;;;;;5053990;28;47127;-80
2021/08/20 13:30:37;;;;;;;;;0.50;0.50;;;;;;;;5072430;27;45531;-78
2021/08/20 13:33:03;;;;;;;;;0.00;0.00;;;;;;;;5048527;28;45661;-78
2021/08/20 13:35:28;;;;;;;;;0.00;0.00;;;;;;;;5067827;27;45501;-78
2021/08/20 13:37:54;;;;;;;;;1.00;0.00;;;;;;;;5068190;27;45414;-81
2021/08/20 13:40:19;;;;;;;;;0.00;0.00;;;;;;;;5069882;27;45320;-78
2021/08/20 13:42:44;;;;;;;;;0.00;0.00;;;;;;;;5053091;27;45634;-79
2021/08/20 13:45:10;;;;;;;;;1.00;1.00;;;;;;;;5071767;28;45509;-78
2021/08/20 13:47:36;;;;;;;;;0.75;0.00;;;;;;;;5065986;28;45543;-78
2021/08/20 13:50:03;;;;;;;;;1.00;1.00;;;;;;;;5067454;27;45459;-80
2021/08/20 13:52:29;;;;;;;;;0.00;0.00;;;;;;;;5064571;28;45531;-77
2021/08/20 13:54:54;;;;;;;;;1.00;1.00;;;;;;;;5060296;27;45688;-79
2021/08/20 13:57:19;;;;;;;;;0.00;0.00;;;;;;;;5066264;28;45499;-80
2021/08/20 13:59:44;;;;;;;;;2.00;0.00;;;;;;;;5066134;27;45457;-79
2021/08/20 14:02:10;;;;;;;;;0.00;0.00;;;;;;;;5070782;27;45564;-80
2021/08/20 14:04:35;;;;;;;;;2.00;0.33;;;;;;;;5066525;27;45458;-80
2021/08/20 14:07:00;;;;;;;;;0.00;0.00;;;;;;;;5060538;27;45605;-86
2021/08/20 14:09:25;;;;;;;;;0.33;0.33;;;;;;;;5067319;27;45479;-82
2021/08/20 14:11:50;;;;;;;;;0.00;0.00;;;;;;;;5071032;27;45633;-80
2021/08/20 14:14:16;;;;;;;;;0.00;0.00;;;;;;;;5063843;27;46003;-85
2021/08/20 14:16:41;;;;;;;;;0.00;0.00;;;;;;;;5066963;28;45625;-85
2021/08/20 14:19:06;;;;;;;;;3.00;0.00;;;;;;;;5044418;28;45897;-85
2021/08/20 14:21:32;;;;;;;;;0.67;0.00;;;;;;;;5070492;27;45312;-84
2021/08/20 14:23:57;;;;;;;;;0.00;0.00;;;;;;;;5068548;28;45491;-82
2021/08/20 14:26:23;;;;;;;;;2.00;1.00;;;;;;;;5047284;28;47830;-83
2021/08/20 14:28:48;;;;;;;;;1.00;1.00;;;;;;;;5068510;27;45335;-85
2021/08/20 14:31:13;;;;;;;;;0.00;0.00;;;;;;;;5069717;28;45514;-85
2021/08/20 14:33:38;;;;;;;;;1.33;1.00;;;;;;;;5065711;27;45489;-84
2021/08/20 14:36:04;;;;;;;;;0.67;0.67;;;;;;;;5072123;27;47754;-84
2021/08/20 14:38:29;;;;;;;;;1.00;1.00;;;;;;;;5064398;28;45570;-85
2021/08/20 14:40:54;;;;;;;;;1.00;1.00;;;;;;;;5066092;28;45486;-84